createdAt,value
2022-10-23T00:05:01.266Z,42.20
2022-10-23T00:15:08.397Z,41.70
2022-10-23T00:20:12.630Z,37.10
2022-10-23T00:25:16.865Z,39.30
2022-10-23T00:30:20.478Z,36.90
2022-10-23T00:35:24.200Z,37.60
2022-10-23T00:40:27.305Z,36.60
2022-10-23T00:50:37.716Z,34.10
2022-10-23T00:55:47.118Z,41.20
2022-10-23T01:00:56.072Z,35.60
2022-10-23T01:06:40.789Z,37.10
2022-10-23T01:11:59.972Z,38.40
2022-10-23T01:17:29.091Z,32.30
2022-10-23T01:22:47.555Z,34.70
2022-10-23T01:28:06.635Z,34.00
2022-10-23T01:33:16.910Z,34.80
2022-10-23T01:38:50.050Z,31.30
2022-10-23T01:44:26.710Z,34.80
2022-10-23T01:49:31.970Z,33.70
2022-10-23T01:54:41.115Z,33.60
2022-10-23T01:59:53.669Z,30.20
2022-10-23T02:05:07.702Z,32.90
2022-10-23T02:10:11.597Z,33.10
2022-10-23T02:15:33.472Z,35.80
2022-10-23T02:25:59.752Z,31.40
2022-10-23T02:31:05.726Z,33.30
2022-10-23T02:36:10.059Z,30.10
2022-10-23T02:41:23.096Z,35.90
2022-10-23T02:46:30.812Z,32.00
2022-10-23T02:51:50.402Z,28.70
2022-10-23T02:57:09.789Z,40.00
2022-10-23T03:02:26.537Z,33.50
2022-10-23T03:07:30.030Z,37.30
2022-10-23T03:12:33.851Z,43.50
2022-10-23T03:17:37.435Z,38.80
2022-10-23T03:22:40.920Z,41.80
2022-10-23T03:27:44.499Z,35.90
2022-10-23T03:37:50.608Z,39.30
2022-10-23T03:47:56.613Z,39.00
2022-10-23T03:58:02.723Z,36.70
2022-10-23T04:03:06.317Z,45.70
2022-10-23T04:13:13.271Z,43.30
2022-10-23T04:23:19.686Z,35.20
2022-10-23T04:33:26.408Z,47.30
2022-10-23T04:38:29.923Z,43.80
2022-10-23T04:43:33.130Z,37.30
2022-10-23T04:53:39.600Z,40.80
2022-10-23T04:58:43.269Z,41.60
2022-10-23T05:03:46.473Z,37.10
2022-10-23T05:13:52.888Z,32.30
2022-10-23T05:29:08.451Z,42.30
2022-10-23T05:39:19.270Z,33.10
2022-10-23T05:44:22.279Z,44.70
2022-10-23T05:49:26.535Z,45.00
2022-10-23T05:54:29.614Z,45.80
2022-10-23T05:59:32.716Z,40.10
2022-10-23T06:04:36.642Z,45.10
2022-10-23T06:09:39.848Z,42.30
2022-10-23T06:19:46.479Z,39.00
2022-10-23T06:24:49.782Z,40.00
2022-10-23T06:34:55.991Z,30.30
2022-10-23T06:45:04.897Z,25.20
2022-10-23T06:50:13.196Z,31.20
2022-10-23T06:55:19.884Z,27.10
2022-10-23T07:00:24.216Z,29.10
2022-10-23T07:05:27.342Z,29.00
2022-10-23T07:15:33.841Z,25.80
2022-10-23T07:20:37.049Z,26.10
2022-10-23T07:25:40.356Z,24.40
2022-10-23T07:30:43.666Z,22.80
2022-10-23T07:40:51.516Z,22.10
2022-10-23T07:45:54.930Z,18.00
2022-10-23T07:51:01.680Z,21.80
2022-10-23T07:56:13.022Z,20.30
2022-10-23T08:01:28.520Z,25.60
2022-10-23T08:06:32.345Z,22.40
2022-10-23T08:11:36.061Z,21.00
2022-10-23T08:16:39.883Z,23.70
2022-10-23T08:21:43.197Z,22.50
2022-10-23T08:26:46.499Z,24.50
2022-10-23T08:31:53.873Z,18.50
2022-10-23T08:36:57.119Z,21.00
2022-10-23T08:42:00.377Z,20.90
2022-10-23T08:47:29.947Z,13.20
2022-10-23T08:52:52.545Z,15.60
2022-10-23T08:58:04.523Z,13.10
2022-10-23T09:03:11.728Z,10.10
2022-10-23T09:08:50.672Z,8.70
2022-10-23T09:14:03.006Z,12.00
2022-10-23T09:19:28.329Z,9.20
2022-10-23T09:24:33.992Z,11.70
2022-10-23T09:29:38.140Z,12.50
2022-10-23T09:34:53.486Z,13.20
2022-10-23T09:40:20.282Z,17.80
2022-10-23T09:45:29.639Z,16.60
2022-10-23T09:50:33.343Z,16.40
2022-10-23T09:55:36.657Z,18.50
2022-10-23T10:00:50.164Z,15.80
2022-10-23T10:06:00.735Z,16.50
2022-10-23T10:11:19.967Z,14.10
2022-10-23T10:16:59.118Z,16.50
2022-10-23T10:22:29.160Z,17.00
2022-10-23T10:27:50.909Z,16.70
2022-10-23T10:33:02.195Z,19.20
2022-10-23T10:38:11.749Z,21.00
2022-10-23T10:43:21.207Z,17.80
2022-10-23T10:48:35.577Z,19.20
2022-10-23T10:53:50.968Z,20.90
2022-10-23T10:58:59.963Z,21.40
2022-10-23T11:04:35.171Z,23.50
2022-10-23T11:09:39.820Z,24.50
2022-10-23T11:14:44.148Z,24.10
2022-10-23T11:20:24.333Z,23.80
2022-10-23T11:26:03.064Z,20.60
2022-10-23T11:31:15.541Z,19.00
2022-10-23T11:36:20.815Z,19.80
2022-10-23T11:41:27.638Z,17.60
2022-10-23T11:46:32.294Z,19.00
2022-10-23T11:51:44.086Z,21.70
2022-10-23T11:56:55.695Z,21.20
2022-10-23T12:02:04.974Z,20.70
2022-10-23T12:07:22.382Z,21.70
2022-10-23T12:12:35.850Z,24.30
2022-10-23T12:17:41.122Z,24.10
2022-10-23T12:22:56.994Z,24.70
2022-10-23T12:28:16.075Z,21.00
2022-10-23T12:33:49.461Z,18.50
2022-10-23T12:44:05.547Z,17.50
2022-10-23T12:49:15.717Z,18.00
2022-10-23T12:54:21.532Z,15.90
2022-10-23T12:59:39.522Z,14.40
2022-10-23T13:04:43.253Z,16.70
2022-10-23T13:09:48.456Z,14.80
2022-10-23T13:15:20.996Z,14.70
2022-10-23T13:20:28.878Z,20.20
2022-10-23T13:25:34.973Z,16.90
2022-10-23T13:30:43.179Z,18.80
2022-10-23T13:36:02.296Z,12.40
2022-10-23T13:41:11.545Z,12.70
2022-10-23T13:46:16.580Z,14.00
2022-10-23T13:51:24.111Z,12.60
2022-10-23T13:56:28.541Z,14.60
2022-10-23T14:01:36.439Z,15.50
2022-10-23T14:06:43.940Z,15.40
2022-10-23T14:11:49.941Z,14.60
2022-10-23T14:16:53.562Z,13.40
2022-10-23T14:21:56.790Z,15.70
2022-10-23T14:27:00.433Z,16.40
2022-10-23T14:32:05.922Z,18.50
2022-10-23T14:37:09.535Z,16.00
2022-10-23T14:42:14.413Z,17.20
2022-10-23T14:47:21.927Z,17.10
2022-10-23T14:52:25.848Z,16.00
2022-10-23T14:57:29.686Z,20.10
2022-10-23T15:02:32.885Z,18.90
2022-10-23T15:07:36.088Z,22.90
2022-10-23T15:12:40.268Z,18.60
2022-10-23T15:17:44.260Z,20.10
2022-10-23T15:22:47.763Z,26.90
2022-10-23T15:32:54.176Z,57.10
2022-10-23T15:37:57.904Z,41.00
2022-10-23T15:43:01.413Z,50.20
2022-10-23T15:48:07.165Z,90.70
2022-10-23T15:53:11.100Z,91.40
2022-10-23T15:58:16.052Z,48.70
2022-10-23T16:03:19.565Z,55.30
2022-10-23T16:08:24.513Z,57.50
2022-10-23T16:13:28.655Z,63.80
2022-10-23T16:18:32.975Z,62.20
2022-10-23T16:23:36.598Z,42.80
2022-10-23T16:28:41.236Z,39.70
2022-10-23T16:33:44.894Z,40.90
2022-10-23T16:38:48.580Z,38.30
2022-10-23T16:43:51.890Z,43.50
2022-10-23T16:48:55.994Z,48.10
2022-10-23T16:53:59.529Z,46.00
2022-10-23T16:59:03.566Z,56.70
2022-10-23T17:04:10.966Z,86.50
2022-10-23T17:09:14.478Z,97.90
2022-10-23T17:14:21.171Z,59.10
2022-10-23T17:19:43.697Z,52.70
2022-10-23T17:24:50.162Z,39.90
2022-10-23T17:29:56.394Z,54.10
2022-10-23T17:34:59.702Z,48.30
2022-10-23T17:45:10.105Z,27.40
2022-10-23T17:50:14.578Z,35.70
2022-10-23T17:55:20.434Z,69.80
2022-10-23T18:00:27.632Z,97.80
2022-10-23T18:05:34.652Z,84.50
2022-10-23T18:10:38.670Z,65.40
2022-10-23T18:15:43.498Z,61.40
2022-10-23T18:20:47.621Z,65.30
2022-10-23T18:25:51.960Z,63.30
2022-10-23T18:30:57.142Z,54.30
2022-10-23T18:36:01.034Z,41.30
2022-10-23T18:41:05.686Z,60.80
2022-10-23T18:46:10.688Z,54.10
2022-10-23T18:51:24.181Z,76.00
2022-10-23T18:56:28.788Z,102.80
2022-10-23T19:01:33.773Z,107.50
2022-10-23T19:06:38.303Z,66.10
2022-10-23T19:11:43.168Z,75.40
2022-10-23T19:16:55.369Z,78.70
2022-10-23T19:21:59.948Z,54.60
2022-10-23T19:27:05.097Z,64.70
2022-10-23T19:32:09.399Z,65.10
2022-10-23T19:42:20.828Z,64.90
2022-10-23T19:47:24.038Z,56.70
2022-10-23T19:52:27.781Z,61.40
2022-10-23T19:57:34.448Z,57.20
2022-10-23T20:02:37.968Z,70.80
2022-10-23T20:07:41.774Z,137.70
2022-10-23T20:12:51.624Z,149.30
2022-10-23T20:18:06.636Z,430.00
2022-10-23T20:23:10.149Z,256.00
2022-10-23T20:28:15.211Z,134.00
2022-10-23T20:33:18.715Z,112.50
2022-10-23T20:38:23.149Z,96.90
2022-10-23T20:43:27.690Z,163.20
2022-10-23T20:48:35.609Z,93.80
2022-10-23T20:53:39.974Z,86.80
2022-10-23T20:58:43.660Z,72.90
2022-10-23T21:03:51.784Z,68.50
2022-10-23T21:09:00.267Z,61.70
2022-10-23T21:14:04.615Z,65.00
2022-10-23T21:19:10.431Z,62.80
2022-10-23T21:24:17.621Z,63.10
2022-10-23T21:29:21.241Z,54.90
2022-10-23T21:34:26.399Z,50.10
2022-10-23T21:39:30.007Z,53.20
2022-10-23T21:44:33.423Z,56.30
2022-10-23T21:49:36.733Z,66.60
2022-10-23T21:54:39.838Z,67.20
2022-10-23T21:59:42.943Z,65.10
2022-10-23T22:04:46.153Z,54.00
2022-10-23T22:09:50.691Z,62.70
2022-10-23T22:14:53.798Z,63.70
2022-10-23T22:19:56.901Z,80.40
2022-10-23T22:25:00.215Z,47.90
2022-10-23T22:30:06.372Z,42.10
2022-10-23T22:35:10.007Z,54.90
2022-10-23T22:40:40.939Z,65.30
2022-10-23T22:45:46.323Z,75.50
2022-10-23T22:55:53.662Z,53.80
2022-10-23T23:01:04.299Z,122.20
2022-10-23T23:06:08.475Z,84.00
2022-10-23T23:11:14.652Z,86.30
2022-10-23T23:16:24.483Z,87.20
2022-10-23T23:21:29.073Z,109.20
2022-10-23T23:26:32.264Z,90.60
2022-10-23T23:36:38.780Z,82.50
2022-10-23T23:46:44.889Z,50.50
2022-10-23T23:51:48.921Z,67.40
2022-10-23T23:56:52.131Z,64.40
